createdAt,value
2019-03-27T00:00:42.017Z,0.00
2019-03-27T00:01:42.138Z,0.00
2019-03-27T00:02:42.289Z,0.00
2019-03-27T00:03:42.403Z,0.00
2019-03-27T00:04:42.539Z,0.00
2019-03-27T00:05:42.672Z,0.00
2019-03-27T00:06:42.798Z,0.00
2019-03-27T00:07:42.935Z,0.00
2019-03-27T00:08:43.144Z,0.00
2019-03-27T00:09:43.198Z,0.00
2019-03-27T00:10:43.316Z,0.00
2019-03-27T00:11:43.464Z,0.00
2019-03-27T00:12:43.595Z,0.00
2019-03-27T00:13:43.726Z,0.00
2019-03-27T00:14:43.857Z,0.00
2019-03-27T00:15:43.994Z,0.00
2019-03-27T00:16:44.112Z,0.00
2019-03-27T00:17:44.242Z,0.00
2019-03-27T00:18:44.405Z,0.00
2019-03-27T00:19:44.535Z,0.00
2019-03-27T00:20:44.665Z,0.00
2019-03-27T00:21:44.792Z,0.00
2019-03-27T00:22:44.937Z,0.00
2019-03-27T00:23:45.054Z,0.00
2019-03-27T00:24:45.183Z,0.00
2019-03-27T00:25:45.311Z,0.00
2019-03-27T00:26:45.458Z,0.00
2019-03-27T00:27:45.585Z,0.00
2019-03-27T00:28:45.710Z,0.00
2019-03-27T00:29:45.863Z,0.00
2019-03-27T00:30:45.992Z,0.00
2019-03-27T00:31:46.120Z,0.00
2019-03-27T00:32:46.248Z,0.00
2019-03-27T00:33:46.402Z,0.00
2019-03-27T00:34:46.536Z,0.00
2019-03-27T00:35:46.660Z,0.00
2019-03-27T00:36:46.797Z,0.00
2019-03-27T00:37:46.983Z,0.00
2019-03-27T00:38:47.091Z,0.00
2019-03-27T00:39:47.221Z,0.00
2019-03-27T00:40:47.374Z,0.00
2019-03-27T00:41:47.489Z,0.00
2019-03-27T00:42:47.617Z,0.00
2019-03-27T00:43:47.758Z,0.00
2019-03-27T00:44:47.911Z,0.00
2019-03-27T00:45:48.037Z,0.00
2019-03-27T00:46:48.155Z,0.00
2019-03-27T00:47:48.286Z,0.00
2019-03-27T00:48:48.436Z,0.00
2019-03-27T00:49:48.553Z,0.00
2019-03-27T00:50:48.688Z,0.00
2019-03-27T00:51:48.815Z,0.00
2019-03-27T00:52:48.952Z,0.00
2019-03-27T00:53:49.074Z,0.00
2019-03-27T00:54:49.197Z,0.00
2019-03-27T00:55:49.333Z,0.00
2019-03-27T00:56:49.487Z,0.00
2019-03-27T00:57:49.600Z,0.00
2019-03-27T00:58:49.727Z,0.00
2019-03-27T00:59:49.855Z,0.00
2019-03-27T01:00:50.009Z,0.00
2019-03-27T01:01:50.133Z,0.00
2019-03-27T01:02:50.254Z,0.00
2019-03-27T01:03:50.379Z,0.00
2019-03-27T01:04:50.512Z,0.00
2019-03-27T01:05:50.635Z,0.00
2019-03-27T01:06:51.189Z,0.00
2019-03-27T01:07:50.892Z,0.00
2019-03-27T01:08:51.041Z,0.00
2019-03-27T01:09:51.168Z,0.00
2019-03-27T01:10:51.291Z,0.00
2019-03-27T01:11:51.428Z,0.00
2019-03-27T01:12:51.547Z,0.00
2019-03-27T01:13:51.672Z,0.00
2019-03-27T01:14:51.801Z,0.00
2019-03-27T01:15:51.929Z,0.00
2019-03-27T01:16:52.057Z,0.00
2019-03-27T01:17:52.193Z,0.00
2019-03-27T01:18:52.304Z,0.00
2019-03-27T01:19:52.427Z,0.00
2019-03-27T01:20:52.610Z,0.00
2019-03-27T01:21:52.704Z,0.00
2019-03-27T01:22:52.829Z,0.00
2019-03-27T01:23:52.960Z,0.00
2019-03-27T01:24:53.090Z,0.00
2019-03-27T01:25:53.219Z,0.00
2019-03-27T01:26:53.340Z,0.00
2019-03-27T01:27:53.468Z,0.00
2019-03-27T01:28:53.611Z,0.00
2019-03-27T01:29:53.739Z,0.00
2019-03-27T01:30:53.867Z,0.00
2019-03-27T01:31:53.998Z,0.00
2019-03-27T01:32:54.140Z,0.00
2019-03-27T01:33:54.268Z,0.00
2019-03-27T01:34:54.392Z,0.00
2019-03-27T01:35:54.540Z,0.00
2019-03-27T01:36:54.662Z,0.00
2019-03-27T01:37:54.791Z,0.00
2019-03-27T01:38:54.937Z,0.00
2019-03-27T01:39:55.072Z,0.00
2019-03-27T01:40:55.199Z,0.00
2019-03-27T01:41:55.335Z,0.00
2019-03-27T01:42:55.475Z,0.00
2019-03-27T01:43:55.599Z,0.00
2019-03-27T01:44:55.740Z,0.00
2019-03-27T01:45:55.868Z,0.00
2019-03-27T01:46:55.993Z,0.00
2019-03-27T01:47:56.119Z,0.00
2019-03-27T01:48:56.249Z,0.00
2019-03-27T01:49:56.380Z,0.00
2019-03-27T01:50:56.506Z,0.00
2019-03-27T01:51:56.637Z,0.00
2019-03-27T01:52:56.761Z,0.00
2019-03-27T01:53:56.915Z,0.00
2019-03-27T01:54:57.034Z,0.00
2019-03-27T01:55:57.169Z,0.00
2019-03-27T01:56:57.296Z,0.00
2019-03-27T01:57:57.438Z,0.00
2019-03-27T01:58:57.559Z,0.00
2019-03-27T01:59:57.688Z,0.00
2019-03-27T02:00:57.908Z,0.00
2019-03-27T02:01:57.967Z,0.00
2019-03-27T02:02:58.091Z,0.00
2019-03-27T02:03:58.219Z,0.00
2019-03-27T02:04:58.345Z,0.00
2019-03-27T02:05:58.484Z,0.00
2019-03-27T02:06:58.613Z,0.00
2019-03-27T02:07:58.743Z,0.00
2019-03-27T02:08:58.866Z,0.00
2019-03-27T02:09:59.000Z,0.00
2019-03-27T02:10:59.136Z,0.00
2019-03-27T02:11:59.337Z,0.00
2019-03-27T02:12:59.378Z,0.00
2019-03-27T02:13:59.530Z,0.00
2019-03-27T02:14:59.652Z,0.00
2019-03-27T02:16:06.726Z,0.00
2019-03-27T02:16:59.916Z,0.00
2019-03-27T02:18:00.064Z,0.00
2019-03-27T02:19:00.169Z,0.00
2019-03-27T02:20:00.465Z,0.00
2019-03-27T02:21:00.416Z,0.00
2019-03-27T02:22:00.568Z,0.00
2019-03-27T02:23:00.691Z,0.00
2019-03-27T02:24:00.814Z,0.00
2019-03-27T02:25:00.937Z,0.00
2019-03-27T02:26:01.067Z,0.00
2019-03-27T02:27:01.188Z,0.00
2019-03-27T02:28:01.327Z,0.00
2019-03-27T02:29:01.455Z,0.00
2019-03-27T02:30:01.575Z,0.00
2019-03-27T02:31:01.693Z,0.00
2019-03-27T02:32:01.821Z,0.00
2019-03-27T02:33:01.951Z,0.00
2019-03-27T02:34:02.113Z,0.00
2019-03-27T02:35:02.214Z,0.00
2019-03-27T02:36:02.343Z,0.00
2019-03-27T02:37:02.461Z,0.00
2019-03-27T02:38:02.596Z,0.00
2019-03-27T02:39:02.724Z,0.00
2019-03-27T02:40:02.865Z,0.00
2019-03-27T02:41:02.999Z,0.00
2019-03-27T02:42:03.138Z,0.00
2019-03-27T02:43:03.261Z,0.00
2019-03-27T02:44:03.397Z,0.00
2019-03-27T02:45:03.519Z,0.00
2019-03-27T02:46:03.649Z,0.00
2019-03-27T02:47:03.771Z,0.00
2019-03-27T02:48:03.902Z,0.00
2019-03-27T02:49:04.047Z,0.00
2019-03-27T02:50:04.172Z,0.00
2019-03-27T02:51:04.310Z,0.00
2019-03-27T02:52:04.439Z,0.00
2019-03-27T02:53:04.566Z,0.00
2019-03-27T02:54:04.688Z,0.00
2019-03-27T02:55:04.814Z,0.00
2019-03-27T02:56:04.930Z,0.00
2019-03-27T02:57:05.067Z,0.00
2019-03-27T02:58:05.190Z,0.00
2019-03-27T02:59:05.319Z,0.00
2019-03-27T03:00:05.460Z,0.00
2019-03-27T03:01:05.581Z,0.00
2019-03-27T03:02:05.706Z,0.00
2019-03-27T03:03:05.846Z,0.00
2019-03-27T03:04:05.961Z,0.00
2019-03-27T03:05:06.088Z,0.00
2019-03-27T03:06:06.221Z,0.00
2019-03-27T03:07:06.342Z,0.00
2019-03-27T03:08:06.493Z,0.00
2019-03-27T03:09:06.626Z,0.00
2019-03-27T03:10:06.748Z,0.00
2019-03-27T03:11:06.873Z,0.00
2019-03-27T03:12:07.026Z,0.00
2019-03-27T03:13:07.155Z,0.00
2019-03-27T03:14:07.283Z,0.00
2019-03-27T03:15:07.416Z,0.00
2019-03-27T03:16:07.547Z,0.00
2019-03-27T03:17:07.667Z,0.00
2019-03-27T03:18:07.808Z,0.00
2019-03-27T03:19:07.924Z,0.00
2019-03-27T03:20:08.078Z,0.00
2019-03-27T03:21:08.195Z,0.00
2019-03-27T03:22:08.313Z,0.00
2019-03-27T03:23:08.446Z,0.00
2019-03-27T03:24:08.595Z,0.00
2019-03-27T03:25:08.727Z,0.00
2019-03-27T03:26:08.845Z,0.00
2019-03-27T03:27:08.992Z,0.00
2019-03-27T03:28:09.127Z,0.00
2019-03-27T03:29:09.241Z,0.00
2019-03-27T03:30:09.379Z,0.00
2019-03-27T03:31:09.505Z,0.00
2019-03-27T03:32:09.626Z,0.00
2019-03-27T03:33:09.778Z,0.00
2019-03-27T03:34:09.896Z,0.00
2019-03-27T03:35:10.024Z,0.00
2019-03-27T03:36:10.154Z,0.00
2019-03-27T03:37:10.280Z,0.00
2019-03-27T03:38:10.406Z,0.00
2019-03-27T03:39:10.534Z,0.00
2019-03-27T03:40:10.662Z,0.00
2019-03-27T03:41:10.793Z,0.00
2019-03-27T03:42:10.918Z,0.00
2019-03-27T03:43:11.043Z,0.00
2019-03-27T03:44:11.171Z,0.00
2019-03-27T03:45:11.426Z,0.00
2019-03-27T03:46:11.530Z,0.00
2019-03-27T03:47:11.563Z,0.00
2019-03-27T03:48:11.701Z,0.00
2019-03-27T03:49:11.838Z,0.00
2019-03-27T03:50:11.971Z,0.00
2019-03-27T03:51:12.082Z,0.00
2019-03-27T03:52:12.215Z,0.00
2019-03-27T03:53:12.365Z,0.00
2019-03-27T03:54:12.471Z,0.00
2019-03-27T03:55:12.604Z,0.00
2019-03-27T03:56:12.729Z,0.00
2019-03-27T03:57:12.861Z,0.00
2019-03-27T03:58:12.979Z,0.00
2019-03-27T03:59:13.118Z,0.00
2019-03-27T04:00:13.339Z,0.00
2019-03-27T04:01:13.368Z,0.00
2019-03-27T04:02:13.503Z,0.00
2019-03-27T04:03:13.627Z,0.00
2019-03-27T04:04:13.759Z,0.00
2019-03-27T04:05:13.882Z,0.00
2019-03-27T04:06:14.048Z,0.00
2019-03-27T04:07:14.143Z,0.00
2019-03-27T04:08:14.273Z,0.00
2019-03-27T04:09:14.410Z,0.00
2019-03-27T04:10:14.541Z,0.00
2019-03-27T04:11:14.679Z,0.00
2019-03-27T04:12:14.804Z,0.00
2019-03-27T04:13:14.929Z,0.00
2019-03-27T04:14:15.058Z,0.00
2019-03-27T04:15:15.208Z,0.00
2019-03-27T04:16:15.363Z,0.00
2019-03-27T04:17:17.612Z,0.00
2019-03-27T04:18:15.607Z,0.00
2019-03-27T04:19:15.749Z,0.00
2019-03-27T04:20:15.869Z,0.00
2019-03-27T04:21:16.012Z,0.00
2019-03-27T04:22:16.129Z,0.00
2019-03-27T04:23:16.266Z,0.00
2019-03-27T04:24:16.390Z,0.00
2019-03-27T04:25:16.510Z,0.00
2019-03-27T04:26:16.639Z,0.00
2019-03-27T04:27:16.802Z,0.00
2019-03-27T04:28:16.909Z,0.00
2019-03-27T04:29:17.050Z,0.00
2019-03-27T04:30:17.174Z,0.00
2019-03-27T04:31:17.316Z,0.00
2019-03-27T04:32:17.441Z,0.00
2019-03-27T04:33:17.571Z,0.00
2019-03-27T04:34:17.705Z,0.00
2019-03-27T04:35:17.843Z,0.00
2019-03-27T04:36:17.973Z,0.00
2019-03-27T04:37:18.092Z,0.00
2019-03-27T04:38:18.218Z,0.00
2019-03-27T04:39:18.349Z,0.00
2019-03-27T04:40:18.477Z,0.00
2019-03-27T04:41:18.606Z,0.00
2019-03-27T04:42:18.763Z,0.00
2019-03-27T04:43:18.877Z,4.00
2019-03-27T04:44:19.004Z,4.00
2019-03-27T04:45:19.128Z,0.00
2019-03-27T04:46:19.278Z,4.00
2019-03-27T04:47:31.500Z,4.00
2019-03-27T04:48:19.529Z,4.00
2019-03-27T04:49:19.735Z,4.00
2019-03-27T04:50:20.009Z,4.00
2019-03-27T04:51:19.896Z,8.00
2019-03-27T04:52:20.054Z,8.00
2019-03-27T04:53:20.184Z,12.00
2019-03-27T04:54:20.319Z,12.00
2019-03-27T04:55:20.448Z,16.00
2019-03-27T04:56:20.574Z,20.00
2019-03-27T04:57:20.685Z,20.00
2019-03-27T04:58:20.820Z,24.00
2019-03-27T04:59:20.949Z,28.00
2019-03-27T05:00:21.115Z,36.00
2019-03-27T05:01:21.219Z,40.00
2019-03-27T05:02:21.353Z,44.00
2019-03-27T05:03:21.488Z,52.00
2019-03-27T05:04:21.607Z,60.00
2019-03-27T05:05:21.750Z,72.00
2019-03-27T05:06:21.863Z,80.00
2019-03-27T05:07:22.007Z,88.00
2019-03-27T05:08:22.133Z,104.00
2019-03-27T05:09:22.249Z,112.00
2019-03-27T05:10:22.379Z,128.00
2019-03-27T05:11:22.511Z,144.00
2019-03-27T05:12:22.720Z,160.00
2019-03-27T05:13:22.774Z,176.00
2019-03-27T05:14:22.898Z,192.00
2019-03-27T05:15:23.027Z,212.00
2019-03-27T05:16:23.169Z,228.00
2019-03-27T05:17:23.282Z,248.00
2019-03-27T05:18:23.414Z,264.00
2019-03-27T05:19:23.544Z,288.00
2019-03-27T05:20:23.696Z,304.00
2019-03-27T05:21:23.815Z,324.00
2019-03-27T05:22:23.945Z,352.00
2019-03-27T05:23:24.075Z,372.00
2019-03-27T05:24:24.256Z,396.00
2019-03-27T05:25:24.366Z,420.00
2019-03-27T05:26:24.490Z,448.00
2019-03-27T05:27:24.622Z,476.00
2019-03-27T05:28:24.789Z,504.00
2019-03-27T05:29:24.951Z,532.00
2019-03-27T05:30:25.015Z,556.00
2019-03-27T05:31:25.139Z,576.00
2019-03-27T05:32:25.300Z,596.00
2019-03-27T05:33:25.411Z,612.00
2019-03-27T05:34:25.536Z,628.00
2019-03-27T05:35:25.681Z,644.00
2019-03-27T05:36:25.813Z,664.00
2019-03-27T05:37:25.929Z,684.00
2019-03-27T05:38:26.082Z,708.00
2019-03-27T05:39:26.194Z,724.00
2019-03-27T05:40:26.319Z,748.00
2019-03-27T05:41:26.448Z,768.00
2019-03-27T05:42:26.589Z,792.00
2019-03-27T05:43:26.722Z,824.00
2019-03-27T05:44:26.848Z,868.00
2019-03-27T05:45:26.989Z,940.00
2019-03-27T05:46:27.113Z,1016.00
2019-03-27T05:47:27.243Z,1088.00
2019-03-27T05:48:27.372Z,1172.00
2019-03-27T05:49:27.501Z,1252.00
2019-03-27T05:50:27.623Z,1296.00
2019-03-27T05:51:27.786Z,1348.00
2019-03-27T05:52:27.922Z,1400.00
2019-03-27T05:53:28.042Z,1384.00
2019-03-27T05:54:28.171Z,1336.00
2019-03-27T05:55:28.305Z,1240.00
2019-03-27T05:56:28.430Z,1212.00
2019-03-27T05:57:28.561Z,1180.00
2019-03-27T05:58:28.678Z,1156.00
2019-03-27T05:59:28.815Z,1140.00
2019-03-27T06:00:28.941Z,1124.00
2019-03-27T06:01:29.075Z,1124.00
2019-03-27T06:02:29.208Z,1120.00
2019-03-27T06:03:29.356Z,1120.00
2019-03-27T06:04:29.471Z,1120.00
2019-03-27T06:05:29.595Z,1124.00
2019-03-27T06:06:29.729Z,1132.00
2019-03-27T06:07:29.873Z,1136.00
2019-03-27T06:08:30.004Z,1144.00
2019-03-27T06:09:30.127Z,1152.00
2019-03-27T06:10:30.253Z,1164.00
2019-03-27T06:11:30.378Z,1172.00
2019-03-27T06:12:30.512Z,1176.00
2019-03-27T06:13:30.639Z,1192.00
2019-03-27T06:14:30.793Z,1208.00
2019-03-27T06:15:30.915Z,1228.00
2019-03-27T06:16:31.043Z,1272.00
2019-03-27T06:17:31.180Z,1320.00
2019-03-27T06:18:31.305Z,1396.00
2019-03-27T06:19:31.424Z,1468.00
2019-03-27T06:20:31.552Z,1536.00
2019-03-27T06:21:31.678Z,1592.00
2019-03-27T06:22:31.801Z,1640.00
2019-03-27T06:23:32.016Z,1704.00
2019-03-27T06:24:32.097Z,1756.00
2019-03-27T06:25:32.210Z,1756.00
2019-03-27T06:26:32.337Z,1708.00
2019-03-27T06:27:32.469Z,1692.00
2019-03-27T06:28:32.599Z,1724.00
2019-03-27T06:29:32.724Z,1752.00
2019-03-27T06:30:32.860Z,1788.00
2019-03-27T06:31:33.001Z,1824.00
2019-03-27T06:32:33.113Z,1852.00
2019-03-27T06:33:33.242Z,1916.00
2019-03-27T06:34:33.363Z,2028.00
2019-03-27T06:35:33.487Z,2152.00
2019-03-27T06:36:33.629Z,2216.00
2019-03-27T06:37:33.750Z,2284.00
2019-03-27T06:38:33.878Z,2408.00
2019-03-27T06:39:34.000Z,2532.00
2019-03-27T06:40:34.159Z,2620.00
2019-03-27T06:41:34.278Z,2668.00
2019-03-27T06:42:34.409Z,2668.00
2019-03-27T06:43:34.533Z,2660.00
2019-03-27T06:44:34.666Z,2640.00
2019-03-27T06:45:34.790Z,2616.00
2019-03-27T06:46:34.919Z,2616.00
2019-03-27T06:47:35.049Z,2608.00
2019-03-27T06:48:35.178Z,2552.00
2019-03-27T06:49:35.309Z,2456.00
2019-03-27T06:50:35.424Z,2332.00
2019-03-27T06:51:40.368Z,2220.00
2019-03-27T06:52:35.682Z,2132.00
2019-03-27T06:53:35.810Z,2068.00
2019-03-27T06:54:35.943Z,2028.00
2019-03-27T06:55:36.067Z,2008.00
2019-03-27T06:56:36.196Z,1996.00
2019-03-27T06:57:36.325Z,1992.00
2019-03-27T06:58:36.450Z,1984.00
2019-03-27T06:59:36.641Z,1980.00
2019-03-27T07:00:36.648Z,1988.00
2019-03-27T07:01:36.774Z,2020.00
2019-03-27T07:02:36.898Z,2068.00
2019-03-27T07:03:37.052Z,2128.00
2019-03-27T07:04:37.170Z,2200.00
2019-03-27T07:05:37.300Z,2280.00
2019-03-27T07:06:37.484Z,2344.00
2019-03-27T07:07:37.569Z,2380.00
2019-03-27T07:08:37.699Z,2424.00
2019-03-27T07:09:37.828Z,2456.00
2019-03-27T07:10:38.051Z,2468.00
2019-03-27T07:11:38.121Z,2468.00
2019-03-27T07:12:38.253Z,2488.00
2019-03-27T07:13:38.375Z,2528.00
2019-03-27T07:14:38.532Z,2544.00
2019-03-27T07:15:38.658Z,2528.00
2019-03-27T07:16:38.782Z,2536.00
2019-03-27T07:17:38.915Z,2556.00
2019-03-27T07:18:40.464Z,2580.00
2019-03-27T07:19:39.187Z,2600.00
2019-03-27T07:20:41.082Z,2608.00
2019-03-27T07:21:39.453Z,2612.00
2019-03-27T07:22:39.585Z,2600.00
2019-03-27T07:23:39.703Z,2556.00
2019-03-27T07:24:39.839Z,2516.00
2019-03-27T07:25:39.988Z,2492.00
2019-03-27T07:26:40.129Z,2488.00
2019-03-27T07:27:40.233Z,2488.00
2019-03-27T07:28:40.430Z,2472.00
2019-03-27T07:29:40.516Z,2440.00
2019-03-27T07:30:40.640Z,2420.00
2019-03-27T07:31:40.760Z,2412.00
2019-03-27T07:32:40.888Z,2408.00
2019-03-27T07:33:41.030Z,2412.00
2019-03-27T07:34:41.158Z,2400.00
2019-03-27T07:35:41.281Z,2384.00
2019-03-27T07:36:41.410Z,2360.00
2019-03-27T07:37:41.539Z,2324.00
2019-03-27T07:38:41.668Z,2280.00
2019-03-27T07:39:41.798Z,2240.00
2019-03-27T07:40:41.952Z,2208.00
2019-03-27T07:41:42.068Z,2200.00
2019-03-27T07:42:42.196Z,2212.00
2019-03-27T07:43:42.334Z,2212.00
2019-03-27T07:44:42.476Z,2224.00
2019-03-27T07:45:42.615Z,2264.00
2019-03-27T07:46:42.736Z,2320.00
2019-03-27T07:47:42.924Z,2368.00
2019-03-27T07:48:53.262Z,2396.00
2019-03-27T07:49:43.160Z,2416.00
2019-03-27T07:50:43.376Z,2432.00
2019-03-27T07:51:43.376Z,2444.00
2019-03-27T07:52:43.508Z,2440.00
2019-03-27T07:53:43.635Z,2432.00
2019-03-27T07:54:43.770Z,2456.00
2019-03-27T07:55:43.902Z,2508.00
2019-03-27T07:56:44.056Z,2556.00
2019-03-27T07:57:44.171Z,2580.00
2019-03-27T07:58:44.289Z,2580.00
2019-03-27T07:59:44.423Z,2584.00
2019-03-27T08:00:44.543Z,2576.00
2019-03-27T08:01:44.668Z,2576.00
2019-03-27T08:02:44.796Z,2588.00
2019-03-27T08:03:44.950Z,2612.00
2019-03-27T08:04:45.075Z,2620.00
2019-03-27T08:05:45.207Z,2640.00
2019-03-27T08:06:45.348Z,2660.00
2019-03-27T08:07:45.502Z,2700.00
2019-03-27T08:08:45.621Z,2716.00
2019-03-27T08:09:45.757Z,2772.00
2019-03-27T08:10:45.883Z,2868.00
2019-03-27T08:11:46.013Z,2940.00
2019-03-27T08:12:46.217Z,3016.00
2019-03-27T08:13:46.281Z,3088.00
2019-03-27T08:14:47.360Z,3156.00
2019-03-27T08:15:46.491Z,3212.00
2019-03-27T08:16:46.616Z,3232.00
2019-03-27T08:17:46.801Z,3220.00
2019-03-27T08:18:46.925Z,3224.00
2019-03-27T08:19:47.059Z,3252.00
2019-03-27T08:20:47.185Z,3284.00
2019-03-27T08:21:47.339Z,3296.00
2019-03-27T08:22:47.465Z,3312.00
2019-03-27T08:23:47.585Z,3316.00
2019-03-27T08:24:47.730Z,3320.00
2019-03-27T08:25:47.861Z,3312.00
2019-03-27T08:26:47.983Z,3328.00
2019-03-27T08:27:48.130Z,3316.00
2019-03-27T08:28:48.261Z,3260.00
2019-03-27T08:29:48.393Z,3216.00
2019-03-27T08:30:48.637Z,3208.00
2019-03-27T08:31:48.706Z,3240.00
2019-03-27T08:32:48.774Z,3292.00
2019-03-27T08:33:48.909Z,3368.00
2019-03-27T08:34:49.057Z,3408.00
2019-03-27T08:35:49.219Z,3412.00
2019-03-27T08:36:49.325Z,3420.00
2019-03-27T08:37:49.475Z,3436.00
2019-03-27T08:38:49.599Z,3476.00
2019-03-27T08:39:49.731Z,3540.00
2019-03-27T08:40:49.857Z,3652.00
2019-03-27T08:41:50.002Z,3812.00
2019-03-27T08:42:50.131Z,3980.00
2019-03-27T08:43:50.268Z,4116.00
2019-03-27T08:44:50.407Z,4188.00
2019-03-27T08:45:50.554Z,4272.00
2019-03-27T08:46:50.678Z,4300.00
2019-03-27T08:47:50.809Z,4360.00
2019-03-27T08:48:50.948Z,4396.00
2019-03-27T08:49:51.077Z,4428.00
2019-03-27T08:50:51.195Z,4516.00
2019-03-27T08:51:51.336Z,4616.00
2019-03-27T08:52:51.465Z,4776.00
2019-03-27T08:53:51.593Z,4924.00
2019-03-27T08:54:51.724Z,5060.00
2019-03-27T08:55:51.888Z,5256.00
2019-03-27T08:56:51.998Z,5392.00
2019-03-27T08:57:52.133Z,5532.00
2019-03-27T08:58:52.251Z,5600.00
2019-03-27T08:59:52.405Z,5664.00
2019-03-27T09:00:52.535Z,5736.00
2019-03-27T09:01:52.655Z,5916.00
2019-03-27T09:02:52.791Z,6020.00
2019-03-27T09:03:52.944Z,6040.00
2019-03-27T09:04:53.070Z,5988.00
2019-03-27T09:05:53.191Z,5964.00
2019-03-27T09:06:53.325Z,5948.00
2019-03-27T09:07:53.469Z,5948.00
2019-03-27T09:08:53.593Z,5972.00
2019-03-27T09:09:53.732Z,5984.00
2019-03-27T09:10:53.871Z,6040.00
2019-03-27T09:11:53.992Z,6148.00
2019-03-27T09:12:54.126Z,6300.00
2019-03-27T09:13:54.249Z,6384.00
2019-03-27T09:14:54.406Z,6420.00
2019-03-27T09:15:54.528Z,6480.00
2019-03-27T09:16:54.646Z,6536.00
2019-03-27T09:17:54.776Z,6592.00
2019-03-27T09:18:54.924Z,6728.00
2019-03-27T09:19:55.061Z,6860.00
2019-03-27T09:20:55.179Z,6976.00
2019-03-27T09:21:55.316Z,7032.00
2019-03-27T09:22:55.437Z,7080.00
2019-03-27T09:23:55.565Z,7076.00
2019-03-27T09:24:55.695Z,7072.00
2019-03-27T09:25:55.813Z,7060.00
2019-03-27T09:26:55.942Z,6988.00
2019-03-27T09:27:56.073Z,6924.00
2019-03-27T09:28:56.207Z,6824.00
2019-03-27T09:29:56.329Z,6708.00
2019-03-27T09:30:56.459Z,6608.00
2019-03-27T09:31:56.584Z,6548.00
2019-03-27T09:32:56.711Z,6576.00
2019-03-27T09:33:56.836Z,6596.00
2019-03-27T09:34:56.967Z,6628.00
2019-03-27T09:35:57.120Z,6692.00
2019-03-27T09:36:57.229Z,6796.00
2019-03-27T09:37:57.365Z,6904.00
2019-03-27T09:38:57.493Z,6992.00
2019-03-27T09:39:57.623Z,7104.00
2019-03-27T09:40:57.764Z,7268.00
2019-03-27T09:41:57.889Z,7456.00
2019-03-27T09:42:58.008Z,7788.00
2019-03-27T09:43:58.140Z,8192.00
2019-03-27T09:44:58.271Z,8500.00
2019-03-27T09:45:58.403Z,8744.00
2019-03-27T09:46:58.528Z,8940.00
2019-03-27T09:47:58.664Z,9144.00
2019-03-27T09:48:58.783Z,9444.00
2019-03-27T09:49:58.922Z,9440.00
2019-03-27T09:50:59.039Z,9472.00
2019-03-27T09:51:59.192Z,9532.00
2019-03-27T09:52:59.302Z,9600.00
2019-03-27T09:53:59.432Z,9420.00
2019-03-27T09:54:59.575Z,9340.00
2019-03-27T09:55:59.707Z,9472.00
2019-03-27T09:56:59.837Z,9448.00
2019-03-27T09:57:59.952Z,9456.00
2019-03-27T09:59:00.103Z,9156.00
2019-03-27T10:00:00.402Z,8936.00
2019-03-27T10:01:00.352Z,8600.00
2019-03-27T10:02:00.486Z,8424.00
2019-03-27T10:03:00.625Z,8236.00
2019-03-27T10:04:00.756Z,8360.00
2019-03-27T10:05:00.879Z,8756.00
2019-03-27T10:06:01.013Z,9188.00
2019-03-27T10:07:01.169Z,9408.00
2019-03-27T10:08:01.298Z,10628.00
2019-03-27T10:09:01.430Z,11540.00
2019-03-27T10:10:01.558Z,11484.00
2019-03-27T10:11:01.699Z,11800.00
2019-03-27T10:12:01.820Z,11940.00
2019-03-27T10:13:01.952Z,12044.00
2019-03-27T10:14:02.106Z,12060.00
2019-03-27T10:15:02.231Z,12316.00
2019-03-27T10:16:02.372Z,12812.00
2019-03-27T10:17:02.531Z,12588.00
2019-03-27T10:18:02.643Z,12780.00
2019-03-27T10:19:02.780Z,13072.00
2019-03-27T10:20:04.196Z,13164.00
2019-03-27T10:21:03.034Z,13392.00
2019-03-27T10:22:03.177Z,13208.00
2019-03-27T10:23:03.329Z,13144.00
2019-03-27T10:24:03.441Z,12812.00
2019-03-27T10:25:03.586Z,12596.00
2019-03-27T10:26:03.734Z,12424.00
2019-03-27T10:27:03.860Z,12512.00
2019-03-27T10:28:03.988Z,12708.00
2019-03-27T10:29:04.121Z,12340.00
2019-03-27T10:30:04.287Z,12256.00
2019-03-27T10:31:04.429Z,12240.00
2019-03-27T10:32:04.551Z,12100.00
2019-03-27T10:33:04.684Z,12020.00
2019-03-27T10:34:04.813Z,12604.00
2019-03-27T10:35:04.952Z,15712.00
2019-03-27T10:36:05.072Z,36928.00
2019-03-27T10:37:05.207Z,16896.00
2019-03-27T10:38:05.333Z,16048.00
2019-03-27T10:39:05.470Z,15176.00
2019-03-27T10:40:05.627Z,14784.00
2019-03-27T10:41:05.737Z,18880.00
2019-03-27T10:42:05.872Z,21152.00
2019-03-27T10:43:06.018Z,28896.00
2019-03-27T10:44:06.143Z,26208.00
2019-03-27T10:45:06.363Z,40096.00
2019-03-27T10:46:06.423Z,21728.00
2019-03-27T10:47:06.575Z,22944.00
2019-03-27T10:48:06.706Z,37952.00
2019-03-27T10:49:06.833Z,21536.00
2019-03-27T10:50:16.987Z,27008.00
2019-03-27T10:51:07.129Z,34912.00
2019-03-27T10:52:07.263Z,19776.00
2019-03-27T10:53:07.400Z,15528.00
2019-03-27T10:54:07.531Z,13000.00
2019-03-27T10:55:07.660Z,12232.00
2019-03-27T10:56:07.799Z,11724.00
2019-03-27T10:57:07.934Z,11072.00
2019-03-27T10:58:08.073Z,10484.00
2019-03-27T10:59:08.199Z,9800.00
2019-03-27T11:00:08.340Z,9240.00
2019-03-27T11:01:08.473Z,8992.00
2019-03-27T11:02:08.644Z,9540.00
2019-03-27T11:03:08.735Z,12304.00
2019-03-27T11:04:08.874Z,13584.00
2019-03-27T11:05:08.999Z,12268.00
2019-03-27T11:06:09.176Z,15468.00
2019-03-27T11:07:09.280Z,15408.00
2019-03-27T11:08:11.465Z,36960.00
2019-03-27T11:09:09.554Z,19680.00
2019-03-27T11:10:09.706Z,24896.00
2019-03-27T11:11:09.830Z,48672.00
2019-03-27T11:12:09.967Z,42784.00
2019-03-27T11:13:10.095Z,10504.00
2019-03-27T11:14:10.240Z,8816.00
2019-03-27T11:15:10.368Z,7744.00
2019-03-27T11:16:10.500Z,6768.00
2019-03-27T11:17:10.645Z,5944.00
2019-03-27T11:18:10.799Z,5380.00
2019-03-27T11:19:10.936Z,4852.00
2019-03-27T11:20:11.068Z,4400.00
2019-03-27T11:21:11.208Z,4132.00
2019-03-27T11:22:11.345Z,3856.00
2019-03-27T11:23:11.471Z,3756.00
2019-03-27T11:24:11.606Z,3716.00
2019-03-27T11:25:11.733Z,3808.00
2019-03-27T11:26:11.865Z,3952.00
2019-03-27T11:27:12.001Z,4092.00
2019-03-27T11:28:12.134Z,4304.00
2019-03-27T11:29:12.274Z,4520.00
2019-03-27T11:30:12.405Z,4692.00
2019-03-27T11:31:12.528Z,4924.00
2019-03-27T11:32:12.660Z,5320.00
2019-03-27T11:33:12.799Z,5708.00
2019-03-27T11:34:12.927Z,6364.00
2019-03-27T11:35:13.062Z,7248.00
2019-03-27T11:36:13.193Z,8348.00
2019-03-27T11:37:13.345Z,9788.00
2019-03-27T11:38:13.462Z,12176.00
2019-03-27T11:39:13.613Z,13232.00
2019-03-27T11:40:13.745Z,28512.00
2019-03-27T11:41:13.871Z,36128.00
2019-03-27T11:42:14.008Z,34720.00
2019-03-27T11:43:14.142Z,6980.00
2019-03-27T11:44:14.264Z,5860.00
2019-03-27T11:45:14.414Z,5360.00
2019-03-27T11:46:14.536Z,5076.00
2019-03-27T11:47:14.668Z,4992.00
2019-03-27T11:48:14.817Z,5056.00
2019-03-27T11:49:14.949Z,5280.00
2019-03-27T11:50:15.085Z,5428.00
2019-03-27T11:51:15.221Z,5492.00
2019-03-27T11:52:15.362Z,5520.00
2019-03-27T11:53:15.509Z,5444.00
2019-03-27T11:54:15.636Z,5284.00
2019-03-27T11:55:15.765Z,5224.00
2019-03-27T11:56:15.904Z,5348.00
2019-03-27T11:57:16.041Z,5640.00
2019-03-27T11:58:16.195Z,6320.00
2019-03-27T11:59:16.326Z,6932.00
2019-03-27T12:00:16.456Z,7128.00
2019-03-27T12:01:16.602Z,7524.00
2019-03-27T12:02:16.733Z,7752.00
2019-03-27T12:03:16.870Z,8156.00
2019-03-27T12:04:17.000Z,8496.00
2019-03-27T12:05:17.138Z,8484.00
2019-03-27T12:06:17.276Z,8524.00
2019-03-27T12:07:17.421Z,8396.00
2019-03-27T12:08:17.558Z,8636.00
2019-03-27T12:09:17.687Z,9020.00
2019-03-27T12:10:17.826Z,9292.00
2019-03-27T12:11:18.085Z,9528.00
2019-03-27T12:12:18.244Z,10216.00
2019-03-27T12:13:18.324Z,11964.00
2019-03-27T12:14:18.418Z,16244.00
2019-03-27T12:15:18.560Z,24032.00
2019-03-27T12:16:18.720Z,14304.00
2019-03-27T12:17:18.845Z,13756.00
2019-03-27T12:18:18.981Z,14912.00
2019-03-27T12:19:19.130Z,19584.00
2019-03-27T12:20:19.264Z,17376.00
2019-03-27T12:21:19.389Z,15460.00
2019-03-27T12:22:19.525Z,16176.00
2019-03-27T12:23:19.672Z,15360.00
2019-03-27T12:24:19.821Z,15664.00
2019-03-27T12:25:19.955Z,17344.00
2019-03-27T12:26:20.081Z,19872.00
2019-03-27T12:27:20.213Z,31552.00
2019-03-27T12:28:20.401Z,52288.00
2019-03-27T12:29:20.511Z,85216.00
2019-03-27T12:30:20.646Z,18432.00
2019-03-27T12:31:20.773Z,19168.00
2019-03-27T12:32:20.928Z,34528.00
2019-03-27T12:33:21.072Z,61408.00